createdAt,value
2023-04-26T00:02:12.544Z,6.90
2023-04-26T00:04:43.442Z,6.90
2023-04-26T00:07:10.447Z,6.90
2023-04-26T00:09:37.334Z,6.80
2023-04-26T00:12:06.697Z,6.80
2023-04-26T00:14:34.115Z,6.80
2023-04-26T00:17:03.322Z,6.70
2023-04-26T00:19:30.923Z,6.70
2023-04-26T00:21:58.826Z,6.70
2023-04-26T00:24:25.875Z,6.70
2023-04-26T00:26:56.052Z,6.70
2023-04-26T00:29:23.689Z,6.60
2023-04-26T00:31:50.676Z,6.60
2023-04-26T00:34:19.835Z,6.50
2023-04-26T00:36:48.832Z,6.50
2023-04-26T00:39:16.245Z,6.40
2023-04-26T00:41:43.013Z,6.40
2023-04-26T00:44:09.945Z,6.30
2023-04-26T00:46:36.896Z,6.20
2023-04-26T00:49:06.059Z,6.20
2023-04-26T00:51:33.346Z,6.10
2023-04-26T00:54:00.229Z,6.00
2023-04-26T00:56:30.813Z,6.00
2023-04-26T00:58:57.899Z,5.90
2023-04-26T01:01:29.505Z,5.80
2023-04-26T01:03:59.353Z,5.70
2023-04-26T01:06:33.178Z,5.70
2023-04-26T01:09:05.097Z,5.60
2023-04-26T01:11:33.368Z,5.60
2023-04-26T01:14:00.859Z,5.70
2023-04-26T01:16:30.991Z,5.70
2023-04-26T01:18:57.959Z,5.60
2023-04-26T01:21:25.588Z,5.50
2023-04-26T01:23:55.214Z,5.40
2023-04-26T01:26:24.274Z,5.30
2023-04-26T01:28:51.423Z,5.20
2023-04-26T01:31:18.358Z,5.40
2023-04-26T01:33:47.693Z,5.50
2023-04-26T01:36:14.567Z,5.60
2023-04-26T01:38:41.576Z,5.60
2023-04-26T01:41:08.604Z,5.70
2023-04-26T01:43:35.890Z,5.70
2023-04-26T01:46:03.084Z,5.70
2023-04-26T01:48:30.164Z,5.60
2023-04-26T01:50:59.451Z,5.60
2023-04-26T01:53:28.613Z,5.40
2023-04-26T01:55:55.794Z,5.30
2023-04-26T01:58:22.694Z,5.20
2023-04-26T02:00:49.794Z,5.20
2023-04-26T02:03:17.621Z,5.10
2023-04-26T02:05:44.655Z,5.10
2023-04-26T02:08:13.963Z,5.10
2023-04-26T02:10:43.269Z,5.10
2023-04-26T02:13:12.636Z,5.10
2023-04-26T02:15:39.523Z,5.00
2023-04-26T02:18:06.649Z,4.90
2023-04-26T02:20:33.805Z,4.80
2023-04-26T02:23:03.039Z,4.70
2023-04-26T02:25:32.281Z,4.70
2023-04-26T02:27:59.152Z,4.80
2023-04-26T02:30:26.150Z,5.00
2023-04-26T02:32:54.706Z,5.30
2023-04-26T02:35:22.032Z,5.40
2023-04-26T02:37:49.137Z,5.50
2023-04-26T02:40:16.185Z,5.50
2023-04-26T02:42:43.160Z,5.40
2023-04-26T02:45:10.404Z,5.30
2023-04-26T02:47:38.575Z,5.30
2023-04-26T02:50:07.776Z,5.40
2023-04-26T02:52:37.926Z,5.50
2023-04-26T02:55:05.443Z,5.60
2023-04-26T02:57:33.017Z,5.60
2023-04-26T03:00:00.807Z,5.70
2023-04-26T03:02:27.899Z,5.70
2023-04-26T03:04:56.079Z,5.70
2023-04-26T03:07:25.282Z,5.70
2023-04-26T03:09:54.558Z,5.70
2023-04-26T03:12:26.153Z,5.60
2023-04-26T03:14:55.217Z,5.50
2023-04-26T03:17:24.372Z,5.50
2023-04-26T03:19:51.427Z,5.40
2023-04-26T03:22:18.695Z,5.50
2023-04-26T03:24:51.606Z,5.50
2023-04-26T03:27:18.722Z,5.50
2023-04-26T03:29:47.786Z,5.60
2023-04-26T03:32:15.051Z,5.70
2023-04-26T03:34:48.603Z,5.70
2023-04-26T03:37:15.808Z,5.70
2023-04-26T03:39:45.464Z,5.60
2023-04-26T03:42:14.028Z,5.70
2023-04-26T03:44:45.722Z,5.70
2023-04-26T03:47:15.765Z,5.60
2023-04-26T03:49:45.091Z,5.70
2023-04-26T03:52:12.027Z,5.80
2023-04-26T03:54:38.872Z,5.70
2023-04-26T03:57:07.963Z,5.70
2023-04-26T03:59:34.899Z,5.70
2023-04-26T04:02:02.074Z,5.70
2023-04-26T04:04:29.141Z,5.90
2023-04-26T04:06:58.676Z,5.80
2023-04-26T04:09:26.096Z,5.80
2023-04-26T04:11:56.093Z,6.00
2023-04-26T04:14:23.303Z,6.00
2023-04-26T04:16:52.309Z,6.20
2023-04-26T04:19:19.509Z,6.20
2023-04-26T04:21:49.455Z,6.20
2023-04-26T04:24:21.914Z,6.20
2023-04-26T04:26:52.357Z,6.30
2023-04-26T04:29:19.528Z,6.30
2023-04-26T04:31:47.178Z,6.10
2023-04-26T04:34:16.693Z,6.10
2023-04-26T04:36:44.698Z,6.10
2023-04-26T04:39:16.119Z,6.20
2023-04-26T04:41:48.313Z,6.10
2023-04-26T04:44:17.710Z,6.10
2023-04-26T04:46:45.236Z,6.10
2023-04-26T04:49:12.635Z,6.10
2023-04-26T04:51:39.859Z,6.10
2023-04-26T04:54:14.802Z,6.10
2023-04-26T04:56:42.581Z,6.10
2023-04-26T04:59:11.604Z,6.10
2023-04-26T05:01:41.181Z,6.20
2023-04-26T05:04:11.729Z,6.30
2023-04-26T05:06:38.750Z,6.30
2023-04-26T05:09:08.328Z,6.40
2023-04-26T05:11:38.723Z,6.50
2023-04-26T05:14:07.672Z,6.40
2023-04-26T05:16:38.403Z,6.20
2023-04-26T05:19:08.043Z,6.20
2023-04-26T05:21:38.831Z,6.10
2023-04-26T05:24:08.850Z,6.30
2023-04-26T05:26:38.510Z,6.70
2023-04-26T05:29:31.514Z,6.90
2023-04-26T05:32:04.332Z,7.20
2023-04-26T05:34:41.326Z,7.30
2023-04-26T05:37:11.749Z,7.40
2023-04-26T05:39:41.683Z,7.40
2023-04-26T05:42:08.715Z,7.40
2023-04-26T05:44:36.497Z,7.30
2023-04-26T05:47:05.883Z,7.40
2023-04-26T05:49:32.922Z,7.50
2023-04-26T05:52:00.869Z,7.60
2023-04-26T05:54:28.330Z,7.70
2023-04-26T05:56:57.854Z,7.90
2023-04-26T05:59:26.947Z,8.10
2023-04-26T06:01:57.146Z,8.10
2023-04-26T06:04:24.758Z,8.20
2023-04-26T06:07:04.210Z,8.40
2023-04-26T06:09:34.335Z,8.50
2023-04-26T06:12:02.317Z,8.60
2023-04-26T06:14:31.141Z,8.70
2023-04-26T06:17:03.916Z,8.80
2023-04-26T06:19:30.989Z,8.80
2023-04-26T06:21:57.901Z,8.70
2023-04-26T06:24:27.929Z,8.60
2023-04-26T06:26:57.419Z,8.70
2023-04-26T06:29:24.461Z,8.80
2023-04-26T06:31:53.723Z,8.90
2023-04-26T06:34:23.579Z,9.10
2023-04-26T06:36:50.877Z,9.30
2023-04-26T06:39:18.752Z,9.30
2023-04-26T06:41:49.603Z,9.30
2023-04-26T06:44:28.533Z,9.20
2023-04-26T06:47:04.456Z,9.50
2023-04-26T06:49:32.209Z,9.70
2023-04-26T06:51:59.211Z,9.90
2023-04-26T06:54:34.558Z,10.00
2023-04-26T06:57:05.056Z,10.20
2023-04-26T06:59:32.145Z,10.20
2023-04-26T07:01:59.802Z,10.40
2023-04-26T07:04:26.986Z,10.50
2023-04-26T07:06:54.313Z,10.60
2023-04-26T07:09:24.105Z,10.90
2023-04-26T07:11:51.277Z,11.10
2023-04-26T07:14:18.964Z,11.20
2023-04-26T07:16:48.220Z,11.50
2023-04-26T07:19:15.133Z,11.10
2023-04-26T07:21:44.452Z,11.20
2023-04-26T07:24:13.895Z,11.10
2023-04-26T07:26:41.361Z,10.70
2023-04-26T07:29:10.796Z,10.60
2023-04-26T07:31:37.799Z,10.70
2023-04-26T07:34:04.732Z,11.00
2023-04-26T07:36:33.916Z,11.30
2023-04-26T07:39:00.891Z,11.50
2023-04-26T07:41:27.983Z,11.70
2023-04-26T07:43:55.126Z,11.40
2023-04-26T07:46:22.453Z,11.20
2023-04-26T07:48:52.024Z,11.00
2023-04-26T07:51:21.249Z,11.00
2023-04-26T07:53:48.178Z,11.10
2023-04-26T07:56:15.461Z,10.90
2023-04-26T07:58:44.958Z,11.00
2023-04-26T08:01:16.974Z,11.10
2023-04-26T08:03:47.690Z,11.20
2023-04-26T08:06:18.126Z,11.40
2023-04-26T08:08:49.165Z,11.50
2023-04-26T08:11:16.875Z,11.30
2023-04-26T08:13:46.861Z,11.20
2023-04-26T08:16:14.153Z,11.00
2023-04-26T08:18:40.992Z,10.90
2023-04-26T08:21:07.938Z,11.00
2023-04-26T08:23:40.773Z,11.40
2023-04-26T08:26:07.730Z,12.00
2023-04-26T08:28:35.777Z,12.50
2023-04-26T08:31:02.859Z,12.60
2023-04-26T08:33:34.190Z,12.70
2023-04-26T08:36:03.271Z,12.80
2023-04-26T08:38:31.017Z,12.90
2023-04-26T08:41:02.451Z,12.90
2023-04-26T08:43:30.072Z,13.20
2023-04-26T08:45:59.828Z,13.40
2023-04-26T08:48:32.863Z,12.80
2023-04-26T08:51:01.494Z,12.60
2023-04-26T08:53:30.231Z,12.60
2023-04-26T08:55:57.685Z,11.80
2023-04-26T08:58:25.002Z,11.50
2023-04-26T09:00:52.002Z,11.90
2023-04-26T09:03:19.267Z,12.30
2023-04-26T09:05:49.993Z,12.50
2023-04-26T09:08:19.969Z,12.80
2023-04-26T09:10:47.191Z,12.90
2023-04-26T09:13:14.681Z,12.90
2023-04-26T09:15:42.133Z,12.80
2023-04-26T09:18:18.338Z,12.80
2023-04-26T09:20:46.407Z,12.90
2023-04-26T09:23:17.135Z,13.20
2023-04-26T09:25:44.183Z,13.40
2023-04-26T09:28:22.771Z,13.90
2023-04-26T09:30:52.151Z,14.10
2023-04-26T09:33:19.613Z,14.40
2023-04-26T09:35:48.917Z,14.70
2023-04-26T09:38:17.939Z,15.10
2023-04-26T09:40:51.312Z,15.30
2023-04-26T09:43:22.635Z,14.80
2023-04-26T09:45:59.146Z,15.10
2023-04-26T09:48:28.764Z,15.30
2023-04-26T09:50:59.950Z,15.10
2023-04-26T09:53:34.763Z,15.10
2023-04-26T09:56:10.932Z,14.70
2023-04-26T09:58:40.246Z,14.50
2023-04-26T10:01:13.148Z,14.90
2023-04-26T10:03:41.952Z,15.00
2023-04-26T10:06:09.223Z,14.90
2023-04-26T10:08:36.770Z,14.50
2023-04-26T10:11:05.103Z,14.60
2023-04-26T10:13:35.031Z,14.00
2023-04-26T10:16:02.860Z,14.50
2023-04-26T10:18:31.514Z,14.90
2023-04-26T10:21:11.816Z,15.20
2023-04-26T10:23:39.713Z,15.40
2023-04-26T10:26:07.620Z,15.60
2023-04-26T10:28:41.396Z,15.60
2023-04-26T10:31:10.744Z,15.80
2023-04-26T10:33:37.986Z,15.80
2023-04-26T10:36:08.424Z,15.90
2023-04-26T10:38:39.646Z,16.00
2023-04-26T10:41:29.281Z,15.90
2023-04-26T10:43:56.509Z,15.90
2023-04-26T10:46:37.227Z,16.20
2023-04-26T10:49:26.296Z,16.30
2023-04-26T10:56:32.190Z,16.80
2023-04-26T10:59:28.550Z,16.20
2023-04-26T11:02:03.434Z,16.90
2023-04-26T11:08:44.748Z,17.30
2023-04-26T11:11:12.670Z,17.30
2023-04-26T11:13:41.981Z,17.50
2023-04-26T11:16:16.552Z,17.00
2023-04-26T11:18:45.956Z,16.90
2023-04-26T11:21:17.554Z,16.70
2023-04-26T11:23:54.187Z,16.60
2023-04-26T11:26:21.190Z,17.30
2023-04-26T11:28:50.906Z,17.90
2023-04-26T11:31:19.284Z,17.50
2023-04-26T11:33:49.205Z,17.30
2023-04-26T11:36:22.150Z,16.80
2023-04-26T11:38:55.994Z,16.90
2023-04-26T11:41:25.453Z,17.10
2023-04-26T11:43:52.474Z,17.10
2023-04-26T11:46:22.086Z,17.40
2023-04-26T11:48:49.315Z,17.40
2023-04-26T11:51:19.097Z,17.40
2023-04-26T11:53:48.285Z,17.00
2023-04-26T11:56:24.150Z,17.00
2023-04-26T11:58:55.164Z,16.80
2023-04-26T12:01:30.138Z,16.90
2023-04-26T12:03:59.185Z,16.90
2023-04-26T12:06:42.602Z,16.90
2023-04-26T12:09:11.813Z,17.00
2023-04-26T12:11:41.837Z,17.10
2023-04-26T12:14:13.461Z,17.10
2023-04-26T12:16:43.343Z,17.20
2023-04-26T12:19:11.322Z,17.30
2023-04-26T12:21:44.295Z,16.80
2023-04-26T12:24:25.111Z,16.60
2023-04-26T12:26:53.037Z,16.00
2023-04-26T12:29:22.075Z,15.70
2023-04-26T12:31:49.111Z,15.50
2023-04-26T12:34:16.383Z,15.50
2023-04-26T12:36:44.710Z,15.90
2023-04-26T12:39:13.943Z,16.10
2023-04-26T12:41:42.361Z,15.90
2023-04-26T12:44:13.094Z,15.30
2023-04-26T12:46:43.599Z,14.80
2023-04-26T12:49:10.731Z,14.80
2023-04-26T12:51:37.695Z,14.90
2023-04-26T12:54:06.769Z,14.90
2023-04-26T12:56:44.039Z,15.30
2023-04-26T12:59:11.412Z,15.70
2023-04-26T13:01:38.303Z,15.80
2023-04-26T13:04:10.858Z,16.10
2023-04-26T13:06:40.263Z,15.80
2023-04-26T13:09:08.861Z,16.20
2023-04-26T13:11:35.876Z,16.70
2023-04-26T13:14:06.966Z,16.50
2023-04-26T13:16:34.234Z,16.20
2023-04-26T13:19:01.346Z,15.90
2023-04-26T13:21:31.009Z,15.90
2023-04-26T13:23:58.228Z,16.10
2023-04-26T13:26:27.105Z,16.20
2023-04-26T13:28:57.457Z,16.30
2023-04-26T13:31:27.320Z,16.50
2023-04-26T13:33:56.961Z,16.50
2023-04-26T13:36:24.503Z,16.30
2023-04-26T13:38:53.808Z,16.20
2023-04-26T13:41:22.396Z,16.40
2023-04-26T13:43:50.011Z,16.60
2023-04-26T13:46:19.520Z,17.10
2023-04-26T13:48:46.477Z,17.50
2023-04-26T13:51:13.432Z,17.90
2023-04-26T13:53:40.669Z,17.80
2023-04-26T13:56:09.492Z,17.90
2023-04-26T13:58:36.759Z,17.40
2023-04-26T14:01:03.838Z,17.20
2023-04-26T14:03:33.584Z,17.50
2023-04-26T14:06:03.564Z,17.40
2023-04-26T14:08:33.176Z,17.00
2023-04-26T14:11:00.184Z,17.00
2023-04-26T14:13:27.203Z,16.90
2023-04-26T14:15:56.992Z,16.60
2023-04-26T14:18:26.161Z,16.00
2023-04-26T14:20:55.823Z,16.10
2023-04-26T14:23:22.779Z,16.20
2023-04-26T14:25:53.348Z,15.90
2023-04-26T14:28:24.609Z,15.90
2023-04-26T14:30:54.199Z,15.80
2023-04-26T14:33:23.741Z,15.90
2023-04-26T14:35:51.983Z,15.90
2023-04-26T14:38:18.877Z,15.30
2023-04-26T14:40:48.107Z,15.10
2023-04-26T14:43:18.120Z,15.10
2023-04-26T14:45:45.628Z,15.30
2023-04-26T14:48:12.697Z,15.50
2023-04-26T14:50:39.704Z,15.90
2023-04-26T14:53:06.860Z,16.30
2023-04-26T14:55:37.162Z,16.30
2023-04-26T14:58:06.251Z,16.70
2023-04-26T15:00:33.216Z,17.20
2023-04-26T15:03:00.345Z,17.50
2023-04-26T15:05:30.448Z,17.60
2023-04-26T15:07:57.392Z,17.70
2023-04-26T15:10:26.752Z,17.40
2023-04-26T15:12:56.333Z,17.20
2023-04-26T15:15:23.406Z,16.40
2023-04-26T15:17:50.819Z,16.00
2023-04-26T15:20:20.149Z,15.50
2023-04-26T15:22:49.472Z,15.20
2023-04-26T15:25:19.196Z,14.80
2023-04-26T15:27:46.947Z,14.80
2023-04-26T15:30:14.178Z,14.90
2023-04-26T15:32:46.385Z,15.00
2023-04-26T15:35:15.067Z,14.90
2023-04-26T15:37:42.101Z,14.60
2023-04-26T15:40:14.261Z,14.40
2023-04-26T15:42:41.424Z,14.30
2023-04-26T15:45:09.013Z,14.40
2023-04-26T15:47:37.103Z,14.30
2023-04-26T15:50:07.816Z,14.40
2023-04-26T15:52:39.191Z,14.50
2023-04-26T15:55:09.429Z,14.50
2023-04-26T15:57:36.784Z,14.50
2023-04-26T16:00:05.910Z,14.40
2023-04-26T16:02:34.523Z,14.30
2023-04-26T16:05:01.841Z,14.20
2023-04-26T16:07:29.033Z,14.10
2023-04-26T16:09:55.931Z,14.00
2023-04-26T16:12:22.981Z,14.00
2023-04-26T16:14:51.629Z,13.90
2023-04-26T16:17:20.819Z,14.00
2023-04-26T16:19:48.503Z,14.00
2023-04-26T16:22:20.350Z,13.90
2023-04-26T16:24:47.353Z,13.70
2023-04-26T16:27:14.312Z,13.60
2023-04-26T16:29:41.200Z,13.60
2023-04-26T16:32:13.913Z,13.60
2023-04-26T16:34:43.542Z,13.40
2023-04-26T16:37:10.520Z,13.40
2023-04-26T16:39:37.565Z,13.30
2023-04-26T16:42:05.419Z,13.30
2023-04-26T16:44:32.356Z,13.40
2023-04-26T16:46:59.368Z,13.40
2023-04-26T16:49:28.772Z,13.50
2023-04-26T16:51:58.952Z,13.60
2023-04-26T16:54:28.463Z,13.80
2023-04-26T16:56:56.167Z,14.20
2023-04-26T16:59:25.510Z,14.50
2023-04-26T17:01:53.358Z,14.90
2023-04-26T17:04:20.641Z,15.00
2023-04-26T17:06:47.519Z,15.10
2023-04-26T17:09:14.876Z,14.80
2023-04-26T17:11:43.562Z,14.90
2023-04-26T17:14:11.139Z,14.90
2023-04-26T17:16:38.106Z,14.60
2023-04-26T17:19:09.348Z,14.20
2023-04-26T17:21:38.799Z,13.90
2023-04-26T17:24:06.006Z,13.90
2023-04-26T17:26:35.220Z,13.80
2023-04-26T17:29:04.454Z,13.50
2023-04-26T17:31:31.465Z,13.30
2023-04-26T17:34:04.872Z,13.10
2023-04-26T17:36:32.044Z,12.90
2023-04-26T17:38:58.952Z,12.60
2023-04-26T17:41:26.119Z,12.50
2023-04-26T17:43:53.024Z,12.40
2023-04-26T17:46:20.136Z,12.30
2023-04-26T17:48:47.144Z,12.40
2023-04-26T17:51:14.192Z,12.30
2023-04-26T17:53:41.091Z,12.40
2023-04-26T17:56:10.025Z,12.50
2023-04-26T17:58:37.146Z,12.40
2023-04-26T18:01:04.844Z,12.30
2023-04-26T18:03:32.491Z,12.20
2023-04-26T18:05:59.467Z,12.10
2023-04-26T18:08:28.635Z,12.10
2023-04-26T18:10:57.622Z,12.00
2023-04-26T18:13:26.739Z,12.00
2023-04-26T18:15:56.120Z,11.90
2023-04-26T18:18:24.598Z,11.90
2023-04-26T18:20:54.742Z,11.90
2023-04-26T18:23:21.770Z,11.80
2023-04-26T18:25:50.454Z,11.70
2023-04-26T18:28:17.489Z,11.70
2023-04-26T18:30:44.512Z,11.70
2023-04-26T18:33:11.707Z,11.50
2023-04-26T18:35:38.592Z,11.50
2023-04-26T18:38:05.601Z,11.50
2023-04-26T18:40:35.794Z,11.50
2023-04-26T18:43:06.314Z,11.50
2023-04-26T18:45:35.502Z,11.40
2023-04-26T18:48:05.840Z,11.30
2023-04-26T18:50:32.639Z,11.30
2023-04-26T18:53:02.303Z,11.20
2023-04-26T18:55:29.251Z,11.10
2023-04-26T18:57:58.285Z,11.00
2023-04-26T19:00:27.653Z,11.00
2023-04-26T19:02:57.120Z,10.90
2023-04-26T19:05:24.469Z,10.80
2023-04-26T19:07:54.506Z,10.70
2023-04-26T19:10:24.015Z,10.70
2023-04-26T19:12:51.485Z,10.70
2023-04-26T19:15:18.676Z,10.60
2023-04-26T19:17:46.614Z,10.70
2023-04-26T19:20:16.288Z,10.70
2023-04-26T19:22:45.304Z,10.70
2023-04-26T19:25:20.534Z,10.70
2023-04-26T19:27:50.648Z,10.70
2023-04-26T19:30:19.955Z,10.70
2023-04-26T19:32:49.182Z,10.80
2023-04-26T19:35:18.268Z,10.70
2023-04-26T19:37:45.633Z,10.70
2023-04-26T19:40:12.593Z,10.60
2023-04-26T19:42:44.687Z,10.60
2023-04-26T19:45:11.949Z,10.60
2023-04-26T19:47:43.953Z,10.50
2023-04-26T19:50:11.262Z,10.40
2023-04-26T19:52:38.220Z,10.40
2023-04-26T19:55:06.067Z,10.40
2023-04-26T19:57:33.006Z,10.40
2023-04-26T20:00:00.025Z,10.30
2023-04-26T20:02:27.430Z,10.30
2023-04-26T20:04:54.581Z,10.20
2023-04-26T20:07:24.668Z,10.20
2023-04-26T20:09:51.698Z,10.20
2023-04-26T20:12:27.196Z,10.20
2023-04-26T20:15:04.199Z,10.20
2023-04-26T20:17:35.976Z,10.20
2023-04-26T20:20:03.745Z,10.10
2023-04-26T20:22:35.989Z,10.10
2023-04-26T20:25:05.537Z,10.20
2023-04-26T20:27:32.813Z,10.10
2023-04-26T20:29:59.980Z,10.10
2023-04-26T20:32:27.168Z,10.00
2023-04-26T20:34:54.378Z,10.00
2023-04-26T20:37:23.712Z,10.00
2023-04-26T20:39:50.739Z,10.00
2023-04-26T20:42:17.931Z,10.00
2023-04-26T20:44:44.902Z,9.90
2023-04-26T20:47:12.042Z,9.90
2023-04-26T20:49:42.048Z,9.90
2023-04-26T20:52:10.575Z,9.90
2023-04-26T20:54:43.015Z,9.90
2023-04-26T20:57:10.318Z,9.80
2023-04-26T20:59:37.177Z,9.80
2023-04-26T21:02:10.453Z,9.80
2023-04-26T21:04:47.645Z,9.70
2023-04-26T21:07:22.953Z,9.70
2023-04-26T21:09:50.060Z,9.70
2023-04-26T21:12:20.731Z,9.70
2023-04-26T21:14:50.304Z,9.70
2023-04-26T21:17:17.517Z,9.70
2023-04-26T21:19:45.028Z,9.70
2023-04-26T21:22:20.727Z,9.70
2023-04-26T21:24:50.985Z,9.70
2023-04-26T21:27:19.076Z,9.70
2023-04-26T21:29:48.589Z,9.60
2023-04-26T21:32:15.734Z,9.60
2023-04-26T21:34:42.636Z,9.60
2023-04-26T21:37:16.727Z,9.60
2023-04-26T21:39:45.144Z,9.60
2023-04-26T21:42:14.579Z,9.50
2023-04-26T21:44:43.990Z,9.50
2023-04-26T21:47:11.084Z,9.50
2023-04-26T21:49:39.582Z,9.40
2023-04-26T21:52:09.077Z,9.40
2023-04-26T21:54:40.689Z,9.40
2023-04-26T21:57:07.750Z,9.30
2023-04-26T21:59:42.169Z,9.30
2023-04-26T22:02:09.216Z,9.30
2023-04-26T22:04:36.097Z,9.30
2023-04-26T22:07:10.022Z,9.20
2023-04-26T22:09:37.050Z,9.20
2023-04-26T22:12:06.529Z,9.20
2023-04-26T22:14:36.014Z,9.20
2023-04-26T22:17:05.205Z,9.10
2023-04-26T22:19:32.098Z,9.10
2023-04-26T22:22:01.355Z,9.00
2023-04-26T22:24:28.502Z,8.90
2023-04-26T22:26:55.419Z,8.90
2023-04-26T22:29:22.319Z,8.80
2023-04-26T22:31:49.295Z,8.80
2023-04-26T22:34:16.290Z,8.70
2023-04-26T22:36:43.211Z,8.70
2023-04-26T22:39:13.318Z,8.60
2023-04-26T22:41:40.617Z,8.60
2023-04-26T22:44:07.697Z,8.60
2023-04-26T22:46:34.858Z,8.60
2023-04-26T22:49:01.738Z,8.60
2023-04-26T22:51:28.677Z,8.60
2023-04-26T22:53:58.007Z,8.50
2023-04-26T22:56:24.894Z,8.40
2023-04-26T22:58:51.698Z,8.30
2023-04-26T23:01:20.888Z,8.30
2023-04-26T23:03:50.213Z,8.20
2023-04-26T23:06:17.158Z,8.10
2023-04-26T23:08:46.196Z,8.10
2023-04-26T23:11:13.124Z,8.00
2023-04-26T23:13:42.266Z,8.00
2023-04-26T23:16:09.286Z,8.00
2023-04-26T23:18:38.409Z,8.00
2023-04-26T23:21:08.330Z,7.90
2023-04-26T23:23:37.613Z,7.90
2023-04-26T23:26:08.250Z,7.80
2023-04-26T23:28:35.521Z,7.80
2023-04-26T23:31:04.770Z,7.70
2023-04-26T23:33:31.699Z,7.70
2023-04-26T23:35:58.527Z,7.70
2023-04-26T23:38:27.793Z,7.70
2023-04-26T23:40:54.660Z,7.70
2023-04-26T23:43:21.790Z,7.70
2023-04-26T23:45:49.158Z,7.60
2023-04-26T23:48:17.389Z,7.60
2023-04-26T23:50:46.303Z,7.50
2023-04-26T23:53:13.193Z,7.50
2023-04-26T23:55:42.229Z,7.50
2023-04-26T23:58:09.199Z,7.60
